| Date | Time | Temp. (oF) | Dew Point (oF) | Rel. Hum. (%) | Press. (in.) | Wind Dir. | Wind Speed (mph) | Hourly Rainfall (in.) |
|
|---|---|---|---|---|---|---|---|---|---|
| 1 | 10/22 | 00:00 | 53 | 47 | 82 | 29.49 | N | 6 | 0.00 |
| 2 | 10/21 | 23:00 | 54 | 48 | 82 | 29.50 | N | 5 | 0.00 |
| 3 | 10/21 | 22:00 | 54 | 49 | 86 | 29.50 | NNE | 11 | 0.00 |
| 4 | 10/21 | 21:00 | 55 | 52 | 90 | 29.50 | WNW | 13 | 0.00 |
| 5 | 10/21 | 20:00 | 56 | 54 | 94 | 29.50 | SSE | 12 | 0.00 |
| 6 | 10/21 | 19:00 | 58 | 56 | 95 | 29.49 | SSE | 7 | 0.00 |
| 7 | 10/21 | 18:00 | 60 | 58 | 94 | 29.47 | NNE | 3 | 0.19 |
| 8 | 10/21 | 17:00 | 61 | 59 | 94 | 29.49 | ESE | 5 | 0.46 |
| 9 | 10/21 | 16:00 | 67 | 58 | 73 | 29.47 | SSE | 8 | 0.00 |
| 10 | 10/21 | 15:00 | 76 | 61 | 60 | 29.44 | E | 15 | 0.00 |
| 11 | 10/21 | 14:00 | 76 | 61 | 62 | 29.47 | E | 7 | 0.00 |
| 12 | 10/21 | 13:00 | 76 | 62 | 64 | 29.52 | ESE | 9 | 0.00 |
| 13 | 10/21 | 12:00 | 73 | 62 | 71 | 29.56 | E | 17 | 0.00 |
| 14 | 10/21 | 11:00 | 70 | 63 | 79 | 29.59 | ESE | 12 | 0.00 |
| 15 | 10/21 | 10:00 | 68 | 63 | 87 | 29.62 | ESE | 7 | 0.00 |
| 16 | 10/21 | 09:00 | 66 | 63 | 92 | 29.64 | ENE | 7 | 0.00 |
| 17 | 10/21 | 08:00 | 65 | 63 | 94 | 29.66 | E | 4 | 0.00 |
| 18 | 10/21 | 07:00 | 64 | 62 | 94 | 29.67 | ESE | 4 | 0.00 |
| 19 | 10/21 | 06:00 | 65 | 62 | 92 | 29.69 | E | 5 | 0.00 |
| 20 | 10/21 | 05:00 | 66 | 62 | 90 | 29.71 | ESE | 6 | 0.00 |
| 21 | 10/21 | 04:00 | 66 | 62 | 90 | 29.72 | ESE | 6 | 0.00 |
| 22 | 10/21 | 03:00 | 66 | 62 | 89 | 29.76 | E | 11 | 0.00 |
| 23 | 10/21 | 02:00 | 66 | 62 | 87 | 29.78 | E | 0 | 0.00 |
| 24 | 10/21 | 01:00 | 67 | 62 | 85 | 29.78 | ESE | 8 | 0.00 |